sensor_id;sensor_type;location;lat;lon;timestamp;P1;durP1;ratioP1;P2;durP2;ratioP2
16510;SDS011;8368;48.772;8.754;2024-03-02T00:02:11;9.30;;;7.10;;
16510;SDS011;8368;48.772;8.754;2024-03-02T00:04:36;11.33;;;7.80;;
16510;SDS011;8368;48.772;8.754;2024-03-02T00:07:02;16.53;;;7.37;;
16510;SDS011;8368;48.772;8.754;2024-03-02T00:09:28;9.27;;;6.50;;
16510;SDS011;8368;48.772;8.754;2024-03-02T00:11:54;12.73;;;6.97;;
16510;SDS011;8368;48.772;8.754;2024-03-02T00:14:20;12.93;;;8.33;;
16510;SDS011;8368;48.772;8.754;2024-03-02T00:16:46;11.13;;;7.33;;
16510;SDS011;8368;48.772;8.754;2024-03-02T00:19:11;13.20;;;7.90;;
16510;SDS011;8368;48.772;8.754;2024-03-02T00:21:37;11.57;;;7.80;;
16510;SDS011;8368;48.772;8.754;2024-03-02T00:24:07;11.87;;;7.43;;
16510;SDS011;8368;48.772;8.754;2024-03-02T00:26:58;12.97;;;7.53;;
16510;SDS011;8368;48.772;8.754;2024-03-02T00:29:24;14.47;;;7.83;;
16510;SDS011;8368;48.772;8.754;2024-03-02T00:31:50;12.40;;;7.60;;
16510;SDS011;8368;48.772;8.754;2024-03-02T00:34:16;10.43;;;7.73;;
16510;SDS011;8368;48.772;8.754;2024-03-02T00:36:42;9.53;;;7.00;;
16510;SDS011;8368;48.772;8.754;2024-03-02T00:39:08;10.97;;;7.27;;
16510;SDS011;8368;48.772;8.754;2024-03-02T00:41:40;11.70;;;7.47;;
16510;SDS011;8368;48.772;8.754;2024-03-02T00:44:09;11.63;;;7.20;;
16510;SDS011;8368;48.772;8.754;2024-03-02T00:46:38;14.93;;;7.77;;
16510;SDS011;8368;48.772;8.754;2024-03-02T00:51:36;10.90;;;7.77;;
16510;SDS011;8368;48.772;8.754;2024-03-02T00:54:03;15.10;;;8.87;;
16510;SDS011;8368;48.772;8.754;2024-03-02T00:56:30;11.43;;;7.23;;
16510;SDS011;8368;48.772;8.754;2024-03-02T00:58:57;14.10;;;8.50;;
16510;SDS011;8368;48.772;8.754;2024-03-02T01:01:22;12.67;;;8.00;;
16510;SDS011;8368;48.772;8.754;2024-03-02T01:03:48;11.17;;;7.57;;
16510;SDS011;8368;48.772;8.754;2024-03-02T01:06:15;12.13;;;8.23;;
16510;SDS011;8368;48.772;8.754;2024-03-02T01:08:42;11.93;;;8.13;;
16510;SDS011;8368;48.772;8.754;2024-03-02T01:11:08;12.87;;;7.67;;
16510;SDS011;8368;48.772;8.754;2024-03-02T01:13:34;12.73;;;7.43;;
16510;SDS011;8368;48.772;8.754;2024-03-02T01:15:59;11.97;;;7.47;;
16510;SDS011;8368;48.772;8.754;2024-03-02T01:18:25;16.30;;;8.30;;
16510;SDS011;8368;48.772;8.754;2024-03-02T01:20:51;11.70;;;7.47;;
16510;SDS011;8368;48.772;8.754;2024-03-02T01:23:18;15.13;;;7.73;;
16510;SDS011;8368;48.772;8.754;2024-03-02T01:25:44;12.13;;;7.67;;
16510;SDS011;8368;48.772;8.754;2024-03-02T01:28:11;14.73;;;8.30;;
16510;SDS011;8368;48.772;8.754;2024-03-02T01:30:36;14.13;;;7.87;;
16510;SDS011;8368;48.772;8.754;2024-03-02T01:33:02;16.33;;;8.90;;
16510;SDS011;8368;48.772;8.754;2024-03-02T01:35:30;14.13;;;8.17;;
16510;SDS011;8368;48.772;8.754;2024-03-02T01:37:59;16.63;;;9.33;;
16510;SDS011;8368;48.772;8.754;2024-03-02T01:40:25;12.97;;;7.90;;
16510;SDS011;8368;48.772;8.754;2024-03-02T01:42:51;15.37;;;8.67;;
16510;SDS011;8368;48.772;8.754;2024-03-02T01:45:23;17.03;;;8.77;;
16510;SDS011;8368;48.772;8.754;2024-03-02T01:47:48;14.47;;;8.87;;
16510;SDS011;8368;48.772;8.754;2024-03-02T01:50:14;13.13;;;8.23;;
16510;SDS011;8368;48.772;8.754;2024-03-02T01:52:40;13.87;;;8.53;;
16510;SDS011;8368;48.772;8.754;2024-03-02T01:55:07;14.40;;;8.07;;
16510;SDS011;8368;48.772;8.754;2024-03-02T01:57:33;16.17;;;9.20;;
16510;SDS011;8368;48.772;8.754;2024-03-02T01:59:59;12.93;;;8.50;;
16510;SDS011;8368;48.772;8.754;2024-03-02T02:02:25;11.73;;;7.33;;
16510;SDS011;8368;48.772;8.754;2024-03-02T02:04:51;15.10;;;8.13;;
16510;SDS011;8368;48.772;8.754;2024-03-02T02:07:16;14.63;;;8.57;;
16510;SDS011;8368;48.772;8.754;2024-03-02T02:09:42;11.83;;;7.80;;
16510;SDS011;8368;48.772;8.754;2024-03-02T02:15:29;14.03;;;8.20;;
16510;SDS011;8368;48.772;8.754;2024-03-02T02:17:56;14.20;;;8.93;;
16510;SDS011;8368;48.772;8.754;2024-03-02T02:20:22;14.17;;;8.40;;
16510;SDS011;8368;48.772;8.754;2024-03-02T02:25:24;15.17;;;9.30;;
16510;SDS011;8368;48.772;8.754;2024-03-02T02:27:49;15.27;;;8.40;;
16510;SDS011;8368;48.772;8.754;2024-03-02T02:30:48;14.70;;;8.83;;
16510;SDS011;8368;48.772;8.754;2024-03-02T02:33:07;12.83;;;7.97;;
16510;SDS011;8368;48.772;8.754;2024-03-02T02:35:33;16.63;;;9.10;;
16510;SDS011;8368;48.772;8.754;2024-03-02T02:37:59;15.63;;;8.87;;
16510;SDS011;8368;48.772;8.754;2024-03-02T02:40:25;16.73;;;9.60;;
16510;SDS011;8368;48.772;8.754;2024-03-02T02:42:51;12.93;;;8.13;;
16510;SDS011;8368;48.772;8.754;2024-03-02T02:45:17;14.17;;;8.87;;
16510;SDS011;8368;48.772;8.754;2024-03-02T02:47:43;16.10;;;9.67;;
16510;SDS011;8368;48.772;8.754;2024-03-02T02:50:09;14.87;;;8.30;;
16510;SDS011;8368;48.772;8.754;2024-03-02T02:52:36;16.07;;;8.67;;
16510;SDS011;8368;48.772;8.754;2024-03-02T02:55:04;16.17;;;8.77;;
16510;SDS011;8368;48.772;8.754;2024-03-02T02:57:31;14.33;;;8.50;;
16510;SDS011;8368;48.772;8.754;2024-03-02T03:00:01;17.23;;;9.00;;
16510;SDS011;8368;48.772;8.754;2024-03-02T03:02:34;13.47;;;8.63;;
16510;SDS011;8368;48.772;8.754;2024-03-02T03:05:04;15.17;;;9.07;;
16510;SDS011;8368;48.772;8.754;2024-03-02T03:07:36;16.90;;;9.73;;
16510;SDS011;8368;48.772;8.754;2024-03-02T03:10:03;15.63;;;8.33;;
16510;SDS011;8368;48.772;8.754;2024-03-02T03:12:29;13.83;;;8.37;;
16510;SDS011;8368;48.772;8.754;2024-03-02T03:14:58;12.87;;;8.30;;
16510;SDS011;8368;48.772;8.754;2024-03-02T03:17:23;14.37;;;8.33;;
16510;SDS011;8368;48.772;8.754;2024-03-02T03:19:49;13.83;;;8.23;;
16510;SDS011;8368;48.772;8.754;2024-03-02T03:22:15;15.80;;;8.93;;
16510;SDS011;8368;48.772;8.754;2024-03-02T03:24:41;13.63;;;8.10;;
16510;SDS011;8368;48.772;8.754;2024-03-02T03:27:07;15.30;;;8.17;;
16510;SDS011;8368;48.772;8.754;2024-03-02T03:29:32;14.37;;;8.03;;
16510;SDS011;8368;48.772;8.754;2024-03-02T03:31:58;14.37;;;8.17;;
16510;SDS011;8368;48.772;8.754;2024-03-02T03:34:23;13.03;;;8.37;;
16510;SDS011;8368;48.772;8.754;2024-03-02T03:36:49;13.03;;;8.20;;
16510;SDS011;8368;48.772;8.754;2024-03-02T03:39:15;15.60;;;9.07;;
16510;SDS011;8368;48.772;8.754;2024-03-02T03:41:40;15.43;;;8.17;;
16510;SDS011;8368;48.772;8.754;2024-03-02T03:44:06;13.03;;;8.23;;
16510;SDS011;8368;48.772;8.754;2024-03-02T03:46:31;15.80;;;8.83;;
16510;SDS011;8368;48.772;8.754;2024-03-02T03:48:57;14.07;;;8.67;;
16510;SDS011;8368;48.772;8.754;2024-03-02T03:51:22;14.13;;;8.40;;
16510;SDS011;8368;48.772;8.754;2024-03-02T03:53:48;14.23;;;8.60;;
16510;SDS011;8368;48.772;8.754;2024-03-02T03:56:14;15.67;;;8.30;;
16510;SDS011;8368;48.772;8.754;2024-03-02T03:58:39;14.97;;;8.83;;
16510;SDS011;8368;48.772;8.754;2024-03-02T04:01:05;13.43;;;8.43;;
16510;SDS011;8368;48.772;8.754;2024-03-02T04:03:30;16.47;;;9.10;;
16510;SDS011;8368;48.772;8.754;2024-03-02T04:05:56;14.83;;;7.93;;
16510;SDS011;8368;48.772;8.754;2024-03-02T04:08:21;15.03;;;8.07;;
16510;SDS011;8368;48.772;8.754;2024-03-02T04:10:47;13.87;;;8.17;;
16510;SDS011;8368;48.772;8.754;2024-03-02T04:13:13;19.13;;;9.50;;
16510;SDS011;8368;48.772;8.754;2024-03-02T04:15:38;16.67;;;9.30;;
16510;SDS011;8368;48.772;8.754;2024-03-02T04:18:05;13.93;;;8.13;;
16510;SDS011;8368;48.772;8.754;2024-03-02T04:20:31;14.53;;;8.53;;
16510;SDS011;8368;48.772;8.754;2024-03-02T04:22:56;14.90;;;8.37;;
16510;SDS011;8368;48.772;8.754;2024-03-02T04:25:22;17.37;;;10.00;;
16510;SDS011;8368;48.772;8.754;2024-03-02T04:27:48;17.00;;;9.13;;
16510;SDS011;8368;48.772;8.754;2024-03-02T04:30:13;18.37;;;9.97;;
16510;SDS011;8368;48.772;8.754;2024-03-02T04:32:39;16.00;;;9.63;;
16510;SDS011;8368;48.772;8.754;2024-03-02T04:35:05;18.43;;;10.03;;
16510;SDS011;8368;48.772;8.754;2024-03-02T04:37:34;16.77;;;10.13;;
16510;SDS011;8368;48.772;8.754;2024-03-02T04:39:59;20.23;;;10.50;;
16510;SDS011;8368;48.772;8.754;2024-03-02T04:42:25;19.10;;;10.50;;
16510;SDS011;8368;48.772;8.754;2024-03-02T04:44:50;18.37;;;10.03;;
16510;SDS011;8368;48.772;8.754;2024-03-02T04:47:16;22.93;;;10.67;;
16510;SDS011;8368;48.772;8.754;2024-03-02T04:49:41;18.73;;;10.70;;
16510;SDS011;8368;48.772;8.754;2024-03-02T04:52:07;17.77;;;10.20;;
16510;SDS011;8368;48.772;8.754;2024-03-02T04:54:32;20.83;;;10.30;;
16510;SDS011;8368;48.772;8.754;2024-03-02T04:57:18;18.37;;;9.03;;
16510;SDS011;8368;48.772;8.754;2024-03-02T04:59:43;17.40;;;9.80;;
16510;SDS011;8368;48.772;8.754;2024-03-02T05:02:09;25.27;;;11.17;;
16510;SDS011;8368;48.772;8.754;2024-03-02T05:04:34;20.70;;;10.60;;
16510;SDS011;8368;48.772;8.754;2024-03-02T05:07:00;20.77;;;10.30;;
16510;SDS011;8368;48.772;8.754;2024-03-02T05:09:25;20.47;;;10.47;;
16510;SDS011;8368;48.772;8.754;2024-03-02T05:11:51;23.50;;;10.63;;
16510;SDS011;8368;48.772;8.754;2024-03-02T05:14:47;18.87;;;9.83;;
16510;SDS011;8368;48.772;8.754;2024-03-02T05:17:13;19.13;;;9.70;;
16510;SDS011;8368;48.772;8.754;2024-03-02T05:19:38;20.17;;;10.63;;
16510;SDS011;8368;48.772;8.754;2024-03-02T05:22:04;20.60;;;10.27;;
16510;SDS011;8368;48.772;8.754;2024-03-02T05:24:30;19.07;;;10.23;;
16510;SDS011;8368;48.772;8.754;2024-03-02T05:26:56;19.17;;;10.83;;
16510;SDS011;8368;48.772;8.754;2024-03-02T05:29:21;22.17;;;10.07;;
16510;SDS011;8368;48.772;8.754;2024-03-02T05:31:47;20.80;;;10.50;;
16510;SDS011;8368;48.772;8.754;2024-03-02T05:34:13;18.90;;;9.70;;
16510;SDS011;8368;48.772;8.754;2024-03-02T05:36:39;18.40;;;10.07;;
16510;SDS011;8368;48.772;8.754;2024-03-02T05:39:04;22.40;;;10.37;;
16510;SDS011;8368;48.772;8.754;2024-03-02T05:41:34;16.63;;;8.90;;
16510;SDS011;8368;48.772;8.754;2024-03-02T05:43:59;18.93;;;9.13;;
16510;SDS011;8368;48.772;8.754;2024-03-02T05:46:25;21.57;;;10.30;;
16510;SDS011;8368;48.772;8.754;2024-03-02T05:48:50;16.30;;;8.97;;
16510;SDS011;8368;48.772;8.754;2024-03-02T05:51:16;20.07;;;10.03;;
16510;SDS011;8368;48.772;8.754;2024-03-02T05:53:41;18.83;;;10.17;;
16510;SDS011;8368;48.772;8.754;2024-03-02T05:56:07;17.90;;;9.83;;
16510;SDS011;8368;48.772;8.754;2024-03-02T05:58:33;19.07;;;8.83;;
16510;SDS011;8368;48.772;8.754;2024-03-02T06:00:59;17.43;;;9.87;;
16510;SDS011;8368;48.772;8.754;2024-03-02T06:03:24;17.83;;;9.03;;
16510;SDS011;8368;48.772;8.754;2024-03-02T06:05:50;18.13;;;8.93;;
16510;SDS011;8368;48.772;8.754;2024-03-02T06:08:16;18.20;;;9.77;;
16510;SDS011;8368;48.772;8.754;2024-03-02T06:10:42;17.97;;;10.00;;
16510;SDS011;8368;48.772;8.754;2024-03-02T06:13:08;16.73;;;8.97;;
16510;SDS011;8368;48.772;8.754;2024-03-02T06:15:33;17.50;;;9.33;;
16510;SDS011;8368;48.772;8.754;2024-03-02T06:18:01;17.53;;;9.27;;
16510;SDS011;8368;48.772;8.754;2024-03-02T06:20:26;17.63;;;8.53;;
16510;SDS011;8368;48.772;8.754;2024-03-02T06:22:52;20.37;;;9.00;;
16510;SDS011;8368;48.772;8.754;2024-03-02T06:25:17;18.83;;;10.13;;
16510;SDS011;8368;48.772;8.754;2024-03-02T06:27:43;15.93;;;8.73;;
16510;SDS011;8368;48.772;8.754;2024-03-02T06:30:08;15.57;;;9.07;;
16510;SDS011;8368;48.772;8.754;2024-03-02T06:32:34;17.13;;;9.10;;
16510;SDS011;8368;48.772;8.754;2024-03-02T06:35:00;16.13;;;9.37;;
16510;SDS011;8368;48.772;8.754;2024-03-02T06:37:25;15.50;;;8.83;;
16510;SDS011;8368;48.772;8.754;2024-03-02T06:39:51;17.00;;;8.97;;
16510;SDS011;8368;48.772;8.754;2024-03-02T06:42:16;15.90;;;8.93;;
16510;SDS011;8368;48.772;8.754;2024-03-02T06:44:42;17.87;;;9.50;;
16510;SDS011;8368;48.772;8.754;2024-03-02T06:47:07;16.83;;;9.10;;
16510;SDS011;8368;48.772;8.754;2024-03-02T06:49:33;15.93;;;8.53;;
16510;SDS011;8368;48.772;8.754;2024-03-02T06:52:00;20.00;;;9.33;;
16510;SDS011;8368;48.772;8.754;2024-03-02T06:54:25;14.60;;;9.00;;
16510;SDS011;8368;48.772;8.754;2024-03-02T06:56:51;13.97;;;8.10;;
16510;SDS011;8368;48.772;8.754;2024-03-02T06:59:16;16.30;;;8.30;;
16510;SDS011;8368;48.772;8.754;2024-03-02T07:01:42;16.93;;;9.27;;
16510;SDS011;8368;48.772;8.754;2024-03-02T07:04:08;16.93;;;8.50;;
16510;SDS011;8368;48.772;8.754;2024-03-02T07:06:33;18.17;;;9.30;;
16510;SDS011;8368;48.772;8.754;2024-03-02T07:08:59;18.60;;;9.23;;
16510;SDS011;8368;48.772;8.754;2024-03-02T07:11:24;13.20;;;7.80;;
16510;SDS011;8368;48.772;8.754;2024-03-02T07:13:50;18.03;;;9.33;;
16510;SDS011;8368;48.772;8.754;2024-03-02T07:16:16;14.70;;;8.53;;
16510;SDS011;8368;48.772;8.754;2024-03-02T07:19:07;13.57;;;8.37;;
16510;SDS011;8368;48.772;8.754;2024-03-02T07:21:33;17.47;;;9.47;;
16510;SDS011;8368;48.772;8.754;2024-03-02T07:23:58;16.37;;;9.27;;
16510;SDS011;8368;48.772;8.754;2024-03-02T07:26:24;15.53;;;8.30;;
16510;SDS011;8368;48.772;8.754;2024-03-02T07:28:50;17.87;;;8.50;;
16510;SDS011;8368;48.772;8.754;2024-03-02T07:31:16;15.63;;;9.20;;
16510;SDS011;8368;48.772;8.754;2024-03-02T07:33:45;16.17;;;9.13;;
16510;SDS011;8368;48.772;8.754;2024-03-02T07:36:11;18.47;;;8.73;;
16510;SDS011;8368;48.772;8.754;2024-03-02T07:38:37;14.73;;;8.70;;
16510;SDS011;8368;48.772;8.754;2024-03-02T07:41:03;14.27;;;7.83;;
16510;SDS011;8368;48.772;8.754;2024-03-02T07:43:29;17.10;;;8.90;;
16510;SDS011;8368;48.772;8.754;2024-03-02T07:45:56;15.43;;;8.53;;
16510;SDS011;8368;48.772;8.754;2024-03-02T07:48:22;15.53;;;8.40;;
16510;SDS011;8368;48.772;8.754;2024-03-02T07:50:48;13.43;;;7.80;;
16510;SDS011;8368;48.772;8.754;2024-03-02T07:53:13;14.00;;;8.03;;
16510;SDS011;8368;48.772;8.754;2024-03-02T07:55:39;15.80;;;8.67;;
16510;SDS011;8368;48.772;8.754;2024-03-02T07:58:05;11.87;;;7.67;;
16510;SDS011;8368;48.772;8.754;2024-03-02T08:00:31;14.33;;;9.00;;
16510;SDS011;8368;48.772;8.754;2024-03-02T08:02:57;16.20;;;9.07;;
16510;SDS011;8368;48.772;8.754;2024-03-02T08:05:22;12.73;;;8.47;;
16510;SDS011;8368;48.772;8.754;2024-03-02T08:07:48;16.30;;;9.63;;
16510;SDS011;8368;48.772;8.754;2024-03-02T08:10:17;13.03;;;7.90;;
16510;SDS011;8368;48.772;8.754;2024-03-02T08:12:43;14.90;;;8.30;;
16510;SDS011;8368;48.772;8.754;2024-03-02T08:15:08;16.73;;;8.53;;
16510;SDS011;8368;48.772;8.754;2024-03-02T08:17:34;14.93;;;8.63;;
16510;SDS011;8368;48.772;8.754;2024-03-02T08:20:00;12.67;;;7.57;;
16510;SDS011;8368;48.772;8.754;2024-03-02T08:22:25;11.63;;;7.67;;
16510;SDS011;8368;48.772;8.754;2024-03-02T08:24:51;11.77;;;7.57;;
16510;SDS011;8368;48.772;8.754;2024-03-02T08:27:17;10.03;;;7.03;;
16510;SDS011;8368;48.772;8.754;2024-03-02T08:29:42;12.20;;;7.77;;
16510;SDS011;8368;48.772;8.754;2024-03-02T08:32:08;10.03;;;6.80;;
16510;SDS011;8368;48.772;8.754;2024-03-02T08:34:33;11.03;;;6.87;;
16510;SDS011;8368;48.772;8.754;2024-03-02T08:37:00;9.27;;;6.60;;
16510;SDS011;8368;48.772;8.754;2024-03-02T08:39:26;10.60;;;6.43;;
16510;SDS011;8368;48.772;8.754;2024-03-02T08:41:52;9.60;;;6.70;;
16510;SDS011;8368;48.772;8.754;2024-03-02T08:44:18;10.77;;;6.33;;
16510;SDS011;8368;48.772;8.754;2024-03-02T08:46:44;11.20;;;6.80;;
16510;SDS011;8368;48.772;8.754;2024-03-02T08:49:09;10.60;;;7.40;;
16510;SDS011;8368;48.772;8.754;2024-03-02T08:51:35;10.00;;;6.77;;
16510;SDS011;8368;48.772;8.754;2024-03-02T08:54:01;11.00;;;6.93;;
16510;SDS011;8368;48.772;8.754;2024-03-02T08:56:26;11.97;;;7.37;;
16510;SDS011;8368;48.772;8.754;2024-03-02T08:58:52;10.23;;;6.60;;
16510;SDS011;8368;48.772;8.754;2024-03-02T09:01:18;8.50;;;5.70;;
16510;SDS011;8368;48.772;8.754;2024-03-02T09:03:44;9.63;;;6.70;;
16510;SDS011;8368;48.772;8.754;2024-03-02T09:06:10;11.67;;;7.50;;
16510;SDS011;8368;48.772;8.754;2024-03-02T09:08:36;10.40;;;6.70;;
16510;SDS011;8368;48.772;8.754;2024-03-02T09:11:03;10.60;;;7.13;;
16510;SDS011;8368;48.772;8.754;2024-03-02T09:13:29;10.33;;;7.17;;
16510;SDS011;8368;48.772;8.754;2024-03-02T09:15:55;10.93;;;7.50;;
16510;SDS011;8368;48.772;8.754;2024-03-02T09:18:20;11.53;;;7.80;;
16510;SDS011;8368;48.772;8.754;2024-03-02T09:20:46;9.83;;;6.77;;
16510;SDS011;8368;48.772;8.754;2024-03-02T09:23:11;12.30;;;7.90;;
16510;SDS011;8368;48.772;8.754;2024-03-02T09:25:37;12.17;;;7.67;;
16510;SDS011;8368;48.772;8.754;2024-03-02T09:28:02;12.03;;;7.40;;
16510;SDS011;8368;48.772;8.754;2024-03-02T09:30:28;13.30;;;8.03;;
16510;SDS011;8368;48.772;8.754;2024-03-02T09:32:54;11.43;;;7.37;;
16510;SDS011;8368;48.772;8.754;2024-03-02T09:35:19;9.03;;;6.60;;
16510;SDS011;8368;48.772;8.754;2024-03-02T09:37:45;10.93;;;6.53;;
16510;SDS011;8368;48.772;8.754;2024-03-02T09:40:11;8.77;;;6.40;;
16510;SDS011;8368;48.772;8.754;2024-03-02T09:42:38;10.87;;;7.13;;
16510;SDS011;8368;48.772;8.754;2024-03-02T09:45:04;8.47;;;6.63;;
16510;SDS011;8368;48.772;8.754;2024-03-02T09:47:31;9.37;;;6.23;;
16510;SDS011;8368;48.772;8.754;2024-03-02T09:49:56;11.03;;;6.37;;
16510;SDS011;8368;48.772;8.754;2024-03-02T09:52:22;8.60;;;6.10;;
16510;SDS011;8368;48.772;8.754;2024-03-02T09:54:48;7.33;;;5.50;;
16510;SDS011;8368;48.772;8.754;2024-03-02T09:57:14;9.33;;;6.03;;
16510;SDS011;8368;48.772;8.754;2024-03-02T09:59:40;8.93;;;5.60;;
16510;SDS011;8368;48.772;8.754;2024-03-02T10:02:06;7.20;;;5.00;;
16510;SDS011;8368;48.772;8.754;2024-03-02T10:04:32;6.67;;;5.13;;
16510;SDS011;8368;48.772;8.754;2024-03-02T10:07:09;8.03;;;5.90;;
16510;SDS011;8368;48.772;8.754;2024-03-02T10:09:42;7.17;;;5.73;;
16510;SDS011;8368;48.772;8.754;2024-03-02T10:12:12;8.90;;;6.10;;
16510;SDS011;8368;48.772;8.754;2024-03-02T10:14:39;8.70;;;6.20;;
16510;SDS011;8368;48.772;8.754;2024-03-02T10:17:06;6.40;;;5.20;;
16510;SDS011;8368;48.772;8.754;2024-03-02T10:19:33;7.37;;;5.33;;
16510;SDS011;8368;48.772;8.754;2024-03-02T10:22:03;6.67;;;5.00;;
16510;SDS011;8368;48.772;8.754;2024-03-02T10:24:41;6.30;;;4.37;;
16510;SDS011;8368;48.772;8.754;2024-03-02T10:35:42;4.50;;;3.80;;
16510;SDS011;8368;48.772;8.754;2024-03-02T10:38:09;4.03;;;3.63;;
16510;SDS011;8368;48.772;8.754;2024-03-02T10:40:36;3.77;;;3.43;;
16510;SDS011;8368;48.772;8.754;2024-03-02T10:43:02;3.60;;;3.30;;
16510;SDS011;8368;48.772;8.754;2024-03-02T10:45:28;3.67;;;3.37;;
16510;SDS011;8368;48.772;8.754;2024-03-02T10:47:54;4.57;;;3.10;;
16510;SDS011;8368;48.772;8.754;2024-03-02T10:50:20;5.93;;;3.00;;
16510;SDS011;8368;48.772;8.754;2024-03-02T10:52:46;4.50;;;3.07;;
16510;SDS011;8368;48.772;8.754;2024-03-02T10:55:11;3.70;;;3.40;;
16510;SDS011;8368;48.772;8.754;2024-03-02T11:00:16;2.97;;;2.70;;
16510;SDS011;8368;48.772;8.754;2024-03-02T11:02:46;2.70;;;2.50;;
16510;SDS011;8368;48.772;8.754;2024-03-02T11:05:20;6.80;;;2.93;;
16510;SDS011;8368;48.772;8.754;2024-03-02T11:07:57;2.37;;;2.27;;
16510;SDS011;8368;48.772;8.754;2024-03-02T11:10:34;2.93;;;2.63;;
16510;SDS011;8368;48.772;8.754;2024-03-02T11:13:02;1.80;;;1.57;;
16510;SDS011;8368;48.772;8.754;2024-03-02T11:15:30;2.73;;;2.53;;
16510;SDS011;8368;48.772;8.754;2024-03-02T11:17:58;2.57;;;2.43;;
16510;SDS011;8368;48.772;8.754;2024-03-02T11:20:24;2.13;;;1.90;;
16510;SDS011;8368;48.772;8.754;2024-03-02T11:22:50;2.47;;;2.27;;
16510;SDS011;8368;48.772;8.754;2024-03-02T11:25:23;1.57;;;1.57;;
16510;SDS011;8368;48.772;8.754;2024-03-02T11:33:06;1.80;;;1.70;;
16510;SDS011;8368;48.772;8.754;2024-03-02T11:38:02;2.07;;;1.97;;
16510;SDS011;8368;48.772;8.754;2024-03-02T11:40:28;2.03;;;1.93;;
16510;SDS011;8368;48.772;8.754;2024-03-02T11:42:54;2.33;;;1.90;;
16510;SDS011;8368;48.772;8.754;2024-03-02T11:45:26;1.90;;;1.80;;
16510;SDS011;8368;48.772;8.754;2024-03-02T11:47:56;1.90;;;1.80;;
16510;SDS011;8368;48.772;8.754;2024-03-02T11:50:29;2.17;;;2.07;;
16510;SDS011;8368;48.772;8.754;2024-03-02T11:52:55;1.50;;;1.50;;
16510;SDS011;8368;48.772;8.754;2024-03-02T11:55:22;1.70;;;1.50;;
16510;SDS011;8368;48.772;8.754;2024-03-02T11:57:50;2.67;;;1.90;;
16510;SDS011;8368;48.772;8.754;2024-03-02T12:00:18;2.77;;;1.83;;
16510;SDS011;8368;48.772;8.754;2024-03-02T12:02:44;1.47;;;1.47;;
16510;SDS011;8368;48.772;8.754;2024-03-02T12:05:14;2.33;;;1.70;;
16510;SDS011;8368;48.772;8.754;2024-03-02T12:07:41;1.97;;;1.50;;
16510;SDS011;8368;48.772;8.754;2024-03-02T12:10:08;2.30;;;1.70;;
16510;SDS011;8368;48.772;8.754;2024-03-02T12:12:34;1.57;;;1.57;;
16510;SDS011;8368;48.772;8.754;2024-03-02T12:14:59;1.43;;;1.40;;
16510;SDS011;8368;48.772;8.754;2024-03-02T12:17:25;1.27;;;1.27;;
16510;SDS011;8368;48.772;8.754;2024-03-02T12:19:51;1.20;;;1.20;;
16510;SDS011;8368;48.772;8.754;2024-03-02T12:22:17;2.77;;;1.43;;
16510;SDS011;8368;48.772;8.754;2024-03-02T12:24:43;1.33;;;1.33;;
16510;SDS011;8368;48.772;8.754;2024-03-02T12:27:12;1.98;;;1.88;;
16510;SDS011;8368;48.772;8.754;2024-03-02T12:29:40;2.08;;;1.98;;
16510;SDS011;8368;48.772;8.754;2024-03-02T12:32:06;4.43;;;1.90;;
16510;SDS011;8368;48.772;8.754;2024-03-02T12:34:32;1.63;;;1.53;;
16510;SDS011;8368;48.772;8.754;2024-03-02T12:36:57;1.60;;;1.60;;
16510;SDS011;8368;48.772;8.754;2024-03-02T12:39:23;1.40;;;1.30;;
16510;SDS011;8368;48.772;8.754;2024-03-02T12:41:49;1.23;;;1.23;;
16510;SDS011;8368;48.772;8.754;2024-03-02T12:44:15;1.30;;;1.30;;
16510;SDS011;8368;48.772;8.754;2024-03-02T12:46:44;1.30;;;1.30;;
16510;SDS011;8368;48.772;8.754;2024-03-02T12:49:11;1.00;;;1.00;;
16510;SDS011;8368;48.772;8.754;2024-03-02T12:51:39;1.03;;;1.03;;
16510;SDS011;8368;48.772;8.754;2024-03-02T12:54:06;1.20;;;1.20;;
16510;SDS011;8368;48.772;8.754;2024-03-02T12:56:32;1.17;;;1.17;;
16510;SDS011;8368;48.772;8.754;2024-03-02T12:58:58;1.30;;;1.30;;
16510;SDS011;8368;48.772;8.754;2024-03-02T13:01:24;1.23;;;1.23;;
16510;SDS011;8368;48.772;8.754;2024-03-02T13:03:50;1.30;;;1.30;;
16510;SDS011;8368;48.772;8.754;2024-03-02T13:06:17;1.48;;;1.48;;
16510;SDS011;8368;48.772;8.754;2024-03-02T13:08:45;1.30;;;1.30;;
16510;SDS011;8368;48.772;8.754;2024-03-02T13:11:11;1.73;;;1.20;;
16510;SDS011;8368;48.772;8.754;2024-03-02T13:13:36;1.42;;;1.35;;
16510;SDS011;8368;48.772;8.754;2024-03-02T13:16:09;1.52;;;1.42;;
16510;SDS011;8368;48.772;8.754;2024-03-02T13:18:35;1.30;;;1.30;;
16510;SDS011;8368;48.772;8.754;2024-03-02T13:21:01;1.67;;;1.58;;
16510;SDS011;8368;48.772;8.754;2024-03-02T13:23:27;1.70;;;1.40;;
16510;SDS011;8368;48.772;8.754;2024-03-02T13:25:55;2.35;;;1.48;;
16510;SDS011;8368;48.772;8.754;2024-03-02T13:28:21;1.63;;;1.55;;
16510;SDS011;8368;48.772;8.754;2024-03-02T13:30:47;1.40;;;1.40;;
16510;SDS011;8368;48.772;8.754;2024-03-02T13:33:12;1.27;;;1.27;;
16510;SDS011;8368;48.772;8.754;2024-03-02T13:35:38;1.38;;;1.30;;
16510;SDS011;8368;48.772;8.754;2024-03-02T13:38:03;1.85;;;1.75;;
16510;SDS011;8368;48.772;8.754;2024-03-02T13:40:29;1.90;;;1.80;;
16510;SDS011;8368;48.772;8.754;2024-03-02T13:43:00;1.50;;;1.50;;
16510;SDS011;8368;48.772;8.754;2024-03-02T13:45:25;1.50;;;1.45;;
16510;SDS011;8368;48.772;8.754;2024-03-02T13:47:51;2.17;;;1.40;;
16510;SDS011;8368;48.772;8.754;2024-03-02T13:50:17;1.60;;;1.52;;
16510;SDS011;8368;48.772;8.754;2024-03-02T13:52:42;1.55;;;1.50;;
16510;SDS011;8368;48.772;8.754;2024-03-02T13:55:08;1.70;;;1.70;;
16510;SDS011;8368;48.772;8.754;2024-03-02T13:57:33;1.33;;;1.33;;
16510;SDS011;8368;48.772;8.754;2024-03-02T13:59:59;1.80;;;1.67;;
16510;SDS011;8368;48.772;8.754;2024-03-02T14:02:24;1.67;;;1.58;;
16510;SDS011;8368;48.772;8.754;2024-03-02T14:04:50;1.90;;;1.70;;
16510;SDS011;8368;48.772;8.754;2024-03-02T14:07:16;1.27;;;1.27;;
16510;SDS011;8368;48.772;8.754;2024-03-02T14:09:42;1.73;;;1.63;;
16510;SDS011;8368;48.772;8.754;2024-03-02T14:12:07;1.55;;;1.50;;
16510;SDS011;8368;48.772;8.754;2024-03-02T14:14:34;1.63;;;1.55;;
16510;SDS011;8368;48.772;8.754;2024-03-02T14:17:00;1.50;;;1.50;;
16510;SDS011;8368;48.772;8.754;2024-03-02T14:19:28;1.65;;;1.55;;
16510;SDS011;8368;48.772;8.754;2024-03-02T14:21:54;1.50;;;1.40;;
16510;SDS011;8368;48.772;8.754;2024-03-02T14:24:19;1.80;;;1.70;;
16510;SDS011;8368;48.772;8.754;2024-03-02T14:26:48;1.63;;;1.52;;
16510;SDS011;8368;48.772;8.754;2024-03-02T14:29:14;1.73;;;1.60;;
16510;SDS011;8368;48.772;8.754;2024-03-02T14:31:39;2.22;;;1.55;;
16510;SDS011;8368;48.772;8.754;2024-03-02T14:34:05;1.45;;;1.45;;
16510;SDS011;8368;48.772;8.754;2024-03-02T14:36:30;1.23;;;1.23;;
16510;SDS011;8368;48.772;8.754;2024-03-02T14:38:56;1.85;;;1.75;;
16510;SDS011;8368;48.772;8.754;2024-03-02T14:41:22;1.88;;;1.77;;
16510;SDS011;8368;48.772;8.754;2024-03-02T14:43:49;2.80;;;2.55;;
16510;SDS011;8368;48.772;8.754;2024-03-02T14:46:15;2.47;;;2.15;;
16510;SDS011;8368;48.772;8.754;2024-03-02T14:48:41;1.92;;;1.70;;
16510;SDS011;8368;48.772;8.754;2024-03-02T14:51:08;1.95;;;1.85;;
16510;SDS011;8368;48.772;8.754;2024-03-02T14:53:35;2.50;;;2.30;;
16510;SDS011;8368;48.772;8.754;2024-03-02T14:56:02;1.40;;;1.40;;
16510;SDS011;8368;48.772;8.754;2024-03-02T14:58:29;1.60;;;1.50;;
16510;SDS011;8368;48.772;8.754;2024-03-02T15:00:54;1.38;;;1.38;;
16510;SDS011;8368;48.772;8.754;2024-03-02T15:03:20;1.58;;;1.48;;
16510;SDS011;8368;48.772;8.754;2024-03-02T15:05:46;1.90;;;1.80;;
16510;SDS011;8368;48.772;8.754;2024-03-02T15:08:12;3.37;;;1.70;;
16510;SDS011;8368;48.772;8.754;2024-03-02T15:10:37;1.63;;;1.53;;
16510;SDS011;8368;48.772;8.754;2024-03-02T15:13:03;1.60;;;1.50;;
16510;SDS011;8368;48.772;8.754;2024-03-02T15:15:28;1.73;;;1.60;;
16510;SDS011;8368;48.772;8.754;2024-03-02T15:17:54;1.50;;;1.50;;